sensor_id;sensor_type;location;lat;lon;timestamp;P1;durP1;ratioP1;P2;durP2;ratioP2
35917;SDS011;22011;59.912;30.300;2023-12-20T00:01:04;4.55;;;1.92;;
35917;SDS011;22011;59.912;30.300;2023-12-20T00:03:31;4.32;;;1.90;;
35917;SDS011;22011;59.912;30.300;2023-12-20T00:05:59;3.13;;;1.23;;
35917;SDS011;22011;59.912;30.300;2023-12-20T00:08:26;2.88;;;1.30;;
35917;SDS011;22011;59.912;30.300;2023-12-20T00:10:54;3.03;;;1.20;;
35917;SDS011;22011;59.912;30.300;2023-12-20T00:13:21;4.00;;;1.20;;
35917;SDS011;22011;59.912;30.300;2023-12-20T00:15:50;5.07;;;1.45;;
35917;SDS011;22011;59.912;30.300;2023-12-20T00:18:18;5.22;;;1.58;;
35917;SDS011;22011;59.912;30.300;2023-12-20T00:20:45;4.38;;;1.40;;
35917;SDS011;22011;59.912;30.300;2023-12-20T00:23:13;5.28;;;1.75;;
35917;SDS011;22011;59.912;30.300;2023-12-20T00:25:40;3.95;;;1.58;;
35917;SDS011;22011;59.912;30.300;2023-12-20T00:28:08;5.88;;;1.95;;
35917;SDS011;22011;59.912;30.300;2023-12-20T00:30:35;5.97;;;1.83;;
35917;SDS011;22011;59.912;30.300;2023-12-20T00:33:04;3.55;;;1.85;;
35917;SDS011;22011;59.912;30.300;2023-12-20T00:35:32;4.57;;;1.55;;
35917;SDS011;22011;59.912;30.300;2023-12-20T00:37:59;4.18;;;1.85;;
35917;SDS011;22011;59.912;30.300;2023-12-20T00:40:27;3.78;;;1.83;;
35917;SDS011;22011;59.912;30.300;2023-12-20T00:42:54;7.68;;;2.22;;
35917;SDS011;22011;59.912;30.300;2023-12-20T00:45:22;2.58;;;1.38;;
35917;SDS011;22011;59.912;30.300;2023-12-20T00:47:49;4.57;;;2.10;;
35917;SDS011;22011;59.912;30.300;2023-12-20T00:50:18;3.50;;;1.88;;
35917;SDS011;22011;59.912;30.300;2023-12-20T00:52:47;4.78;;;2.00;;
35917;SDS011;22011;59.912;30.300;2023-12-20T00:55:15;4.32;;;1.85;;
35917;SDS011;22011;59.912;30.300;2023-12-20T00:57:42;4.63;;;1.85;;
35917;SDS011;22011;59.912;30.300;2023-12-20T01:00:10;4.70;;;1.63;;
35917;SDS011;22011;59.912;30.300;2023-12-20T01:02:40;5.28;;;1.85;;
35917;SDS011;22011;59.912;30.300;2023-12-20T01:05:07;1.75;;;1.48;;
35917;SDS011;22011;59.912;30.300;2023-12-20T01:07:36;4.95;;;1.70;;
35917;SDS011;22011;59.912;30.300;2023-12-20T01:10:04;7.22;;;2.35;;
35917;SDS011;22011;59.912;30.300;2023-12-20T01:12:32;6.78;;;2.03;;
35917;SDS011;22011;59.912;30.300;2023-12-20T01:15:00;6.47;;;1.88;;
35917;SDS011;22011;59.912;30.300;2023-12-20T01:17:27;3.50;;;1.67;;
35917;SDS011;22011;59.912;30.300;2023-12-20T01:19:55;4.75;;;1.75;;
35917;SDS011;22011;59.912;30.300;2023-12-20T01:22:22;4.25;;;1.75;;
35917;SDS011;22011;59.912;30.300;2023-12-20T01:24:51;2.55;;;1.50;;
35917;SDS011;22011;59.912;30.300;2023-12-20T01:27:19;3.70;;;1.48;;
35917;SDS011;22011;59.912;30.300;2023-12-20T01:29:46;7.38;;;1.60;;
35917;SDS011;22011;59.912;30.300;2023-12-20T01:32:14;1.92;;;1.35;;
35917;SDS011;22011;59.912;30.300;2023-12-20T01:34:41;1.67;;;1.10;;
35917;SDS011;22011;59.912;30.300;2023-12-20T01:37:09;5.05;;;1.20;;
35917;SDS011;22011;59.912;30.300;2023-12-20T01:39:36;2.72;;;1.60;;
35917;SDS011;22011;59.912;30.300;2023-12-20T01:42:05;5.32;;;1.05;;
35917;SDS011;22011;59.912;30.300;2023-12-20T01:44:33;2.22;;;1.00;;
35917;SDS011;22011;59.912;30.300;2023-12-20T01:47:00;1.83;;;1.00;;
35917;SDS011;22011;59.912;30.300;2023-12-20T01:49:28;2.67;;;1.08;;
35917;SDS011;22011;59.912;30.300;2023-12-20T01:51:56;5.07;;;1.17;;
35917;SDS011;22011;59.912;30.300;2023-12-20T01:54:23;2.72;;;1.00;;
35917;SDS011;22011;59.912;30.300;2023-12-20T01:56:52;1.23;;;0.90;;
35917;SDS011;22011;59.912;30.300;2023-12-20T01:59:21;4.07;;;1.20;;
35917;SDS011;22011;59.912;30.300;2023-12-20T02:01:48;3.60;;;0.80;;
35917;SDS011;22011;59.912;30.300;2023-12-20T02:04:16;2.33;;;0.85;;
35917;SDS011;22011;59.912;30.300;2023-12-20T02:06:44;1.33;;;0.50;;
35917;SDS011;22011;59.912;30.300;2023-12-20T02:09:13;3.53;;;1.30;;
35917;SDS011;22011;59.912;30.300;2023-12-20T02:11:42;4.57;;;1.70;;
35917;SDS011;22011;59.912;30.300;2023-12-20T02:14:10;3.17;;;1.33;;
35917;SDS011;22011;59.912;30.300;2023-12-20T02:16:39;6.43;;;1.35;;
35917;SDS011;22011;59.912;30.300;2023-12-20T02:19:08;2.47;;;0.70;;
35917;SDS011;22011;59.912;30.300;2023-12-20T02:21:42;5.57;;;1.33;;
35917;SDS011;22011;59.912;30.300;2023-12-20T02:24:09;1.42;;;0.50;;
35917;SDS011;22011;59.912;30.300;2023-12-20T02:26:37;3.72;;;0.50;;
35917;SDS011;22011;59.912;30.300;2023-12-20T02:29:05;3.30;;;0.80;;
35917;SDS011;22011;59.912;30.300;2023-12-20T02:31:33;4.03;;;0.95;;
35917;SDS011;22011;59.912;30.300;2023-12-20T02:34:00;2.92;;;0.68;;
35917;SDS011;22011;59.912;30.300;2023-12-20T02:36:28;2.42;;;0.93;;
35917;SDS011;22011;59.912;30.300;2023-12-20T02:38:56;4.38;;;0.88;;
35917;SDS011;22011;59.912;30.300;2023-12-20T02:41:24;5.68;;;0.75;;
35917;SDS011;22011;59.912;30.300;2023-12-20T02:43:51;3.10;;;0.85;;
35917;SDS011;22011;59.912;30.300;2023-12-20T02:46:19;2.78;;;0.90;;
35917;SDS011;22011;59.912;30.300;2023-12-20T02:48:47;4.85;;;1.15;;
35917;SDS011;22011;59.912;30.300;2023-12-20T02:51:14;7.13;;;1.00;;
35917;SDS011;22011;59.912;30.300;2023-12-20T02:53:41;5.28;;;1.05;;
35917;SDS011;22011;59.912;30.300;2023-12-20T02:56:10;3.17;;;1.05;;
35917;SDS011;22011;59.912;30.300;2023-12-20T02:58:39;4.78;;;0.93;;
35917;SDS011;22011;59.912;30.300;2023-12-20T03:01:07;2.30;;;0.60;;
35917;SDS011;22011;59.912;30.300;2023-12-20T03:03:34;3.17;;;0.80;;
35917;SDS011;22011;59.912;30.300;2023-12-20T03:06:02;2.60;;;0.70;;
35917;SDS011;22011;59.912;30.300;2023-12-20T03:08:30;5.70;;;0.85;;
35917;SDS011;22011;59.912;30.300;2023-12-20T03:10:58;8.15;;;0.70;;
35917;SDS011;22011;59.912;30.300;2023-12-20T03:13:27;4.95;;;0.90;;
35917;SDS011;22011;59.912;30.300;2023-12-20T03:15:55;5.82;;;1.10;;
35917;SDS011;22011;59.912;30.300;2023-12-20T03:18:22;3.95;;;0.77;;
35917;SDS011;22011;59.912;30.300;2023-12-20T03:20:50;0.95;;;0.40;;
35917;SDS011;22011;59.912;30.300;2023-12-20T03:23:18;5.18;;;0.90;;
35917;SDS011;22011;59.912;30.300;2023-12-20T03:25:46;4.45;;;0.65;;
35917;SDS011;22011;59.912;30.300;2023-12-20T03:28:14;2.47;;;0.60;;
35917;SDS011;22011;59.912;30.300;2023-12-20T03:30:43;6.85;;;1.50;;
35917;SDS011;22011;59.912;30.300;2023-12-20T03:33:11;2.30;;;0.80;;
35917;SDS011;22011;59.912;30.300;2023-12-20T03:35:38;1.92;;;0.55;;
35917;SDS011;22011;59.912;30.300;2023-12-20T03:38:06;3.40;;;0.60;;
35917;SDS011;22011;59.912;30.300;2023-12-20T03:40:34;1.63;;;0.52;;
35917;SDS011;22011;59.912;30.300;2023-12-20T03:43:01;3.17;;;0.63;;
35917;SDS011;22011;59.912;30.300;2023-12-20T03:45:29;2.83;;;0.80;;
35917;SDS011;22011;59.912;30.300;2023-12-20T03:47:58;5.22;;;0.70;;
35917;SDS011;22011;59.912;30.300;2023-12-20T03:50:26;4.15;;;0.60;;
35917;SDS011;22011;59.912;30.300;2023-12-20T03:52:53;2.85;;;0.85;;
35917;SDS011;22011;59.912;30.300;2023-12-20T03:55:21;5.30;;;0.73;;
35917;SDS011;22011;59.912;30.300;2023-12-20T03:57:48;5.07;;;0.82;;
35917;SDS011;22011;59.912;30.300;2023-12-20T04:00:16;3.85;;;0.70;;
35917;SDS011;22011;59.912;30.300;2023-12-20T04:02:44;5.20;;;0.80;;
35917;SDS011;22011;59.912;30.300;2023-12-20T04:05:13;2.33;;;0.75;;
35917;SDS011;22011;59.912;30.300;2023-12-20T04:07:40;3.53;;;0.75;;
35917;SDS011;22011;59.912;30.300;2023-12-20T04:10:08;3.35;;;0.90;;
35917;SDS011;22011;59.912;30.300;2023-12-20T04:12:36;2.83;;;0.85;;
35917;SDS011;22011;59.912;30.300;2023-12-20T04:15:04;2.53;;;0.75;;
35917;SDS011;22011;59.912;30.300;2023-12-20T04:17:35;4.35;;;0.98;;
35917;SDS011;22011;59.912;30.300;2023-12-20T04:20:03;3.92;;;0.82;;
35917;SDS011;22011;59.912;30.300;2023-12-20T04:22:32;2.33;;;0.68;;
35917;SDS011;22011;59.912;30.300;2023-12-20T04:25:00;4.20;;;0.90;;
35917;SDS011;22011;59.912;30.300;2023-12-20T04:27:28;2.45;;;0.70;;
35917;SDS011;22011;59.912;30.300;2023-12-20T04:29:55;3.17;;;0.43;;
35917;SDS011;22011;59.912;30.300;2023-12-20T04:32:23;4.85;;;0.90;;
35917;SDS011;22011;59.912;30.300;2023-12-20T04:34:50;3.05;;;0.63;;
35917;SDS011;22011;59.912;30.300;2023-12-20T04:37:18;4.00;;;0.43;;
35917;SDS011;22011;59.912;30.300;2023-12-20T04:39:47;1.42;;;0.50;;
35917;SDS011;22011;59.912;30.300;2023-12-20T04:42:14;3.90;;;0.77;;
35917;SDS011;22011;59.912;30.300;2023-12-20T04:44:42;3.40;;;0.60;;
35917;SDS011;22011;59.912;30.300;2023-12-20T04:47:09;3.70;;;0.82;;
35917;SDS011;22011;59.912;30.300;2023-12-20T04:49:37;4.30;;;0.60;;
35917;SDS011;22011;59.912;30.300;2023-12-20T04:52:04;2.30;;;0.50;;
35917;SDS011;22011;59.912;30.300;2023-12-20T04:54:32;2.90;;;0.55;;
35917;SDS011;22011;59.912;30.300;2023-12-20T04:57:01;2.90;;;0.90;;
35917;SDS011;22011;59.912;30.300;2023-12-20T04:59:29;3.03;;;0.52;;
35917;SDS011;22011;59.912;30.300;2023-12-20T05:01:57;2.95;;;0.60;;
35917;SDS011;22011;59.912;30.300;2023-12-20T05:04:24;3.35;;;0.68;;
35917;SDS011;22011;59.912;30.300;2023-12-20T05:06:52;3.55;;;0.90;;
35917;SDS011;22011;59.912;30.300;2023-12-20T05:09:19;6.43;;;0.52;;
35917;SDS011;22011;59.912;30.300;2023-12-20T05:11:47;3.63;;;0.90;;
35917;SDS011;22011;59.912;30.300;2023-12-20T05:14:16;1.90;;;0.38;;
35917;SDS011;22011;59.912;30.300;2023-12-20T05:16:44;3.55;;;0.88;;
35917;SDS011;22011;59.912;30.300;2023-12-20T05:19:11;5.55;;;1.00;;
35917;SDS011;22011;59.912;30.300;2023-12-20T05:21:39;1.75;;;0.50;;
35917;SDS011;22011;59.912;30.300;2023-12-20T05:24:07;3.20;;;0.50;;
35917;SDS011;22011;59.912;30.300;2023-12-20T05:26:35;2.38;;;0.63;;
35917;SDS011;22011;59.912;30.300;2023-12-20T05:29:02;2.92;;;0.65;;
35917;SDS011;22011;59.912;30.300;2023-12-20T05:31:32;2.42;;;0.73;;
35917;SDS011;22011;59.912;30.300;2023-12-20T05:33:59;1.38;;;0.65;;
35917;SDS011;22011;59.912;30.300;2023-12-20T05:36:27;2.70;;;0.80;;
35917;SDS011;22011;59.912;30.300;2023-12-20T05:38:54;2.63;;;0.60;;
35917;SDS011;22011;59.912;30.300;2023-12-20T05:41:22;4.07;;;0.88;;
35917;SDS011;22011;59.912;30.300;2023-12-20T05:43:49;3.47;;;0.88;;
35917;SDS011;22011;59.912;30.300;2023-12-20T05:46:17;4.97;;;0.70;;
35917;SDS011;22011;59.912;30.300;2023-12-20T05:48:46;6.80;;;0.70;;
35917;SDS011;22011;59.912;30.300;2023-12-20T05:51:14;2.17;;;0.80;;
35917;SDS011;22011;59.912;30.300;2023-12-20T05:53:42;6.35;;;1.02;;
35917;SDS011;22011;59.912;30.300;2023-12-20T05:56:10;1.52;;;0.77;;
35917;SDS011;22011;59.912;30.300;2023-12-20T05:58:38;4.03;;;0.98;;
35917;SDS011;22011;59.912;30.300;2023-12-20T06:01:06;2.70;;;0.80;;
35917;SDS011;22011;59.912;30.300;2023-12-20T06:03:34;2.22;;;0.80;;
35917;SDS011;22011;59.912;30.300;2023-12-20T06:06:05;7.03;;;1.35;;
35917;SDS011;22011;59.912;30.300;2023-12-20T06:08:33;3.72;;;0.80;;
35917;SDS011;22011;59.912;30.300;2023-12-20T06:11:01;3.58;;;0.77;;
35917;SDS011;22011;59.912;30.300;2023-12-20T06:13:29;4.13;;;0.90;;
35917;SDS011;22011;59.912;30.300;2023-12-20T06:15:56;5.43;;;1.10;;
35917;SDS011;22011;59.912;30.300;2023-12-20T06:18:24;1.67;;;0.68;;
35917;SDS011;22011;59.912;30.300;2023-12-20T06:20:51;3.47;;;0.90;;
35917;SDS011;22011;59.912;30.300;2023-12-20T06:23:20;3.40;;;1.00;;
35917;SDS011;22011;59.912;30.300;2023-12-20T06:25:48;4.47;;;1.17;;
35917;SDS011;22011;59.912;30.300;2023-12-20T06:28:15;3.15;;;1.13;;
35917;SDS011;22011;59.912;30.300;2023-12-20T06:30:43;2.47;;;1.20;;
35917;SDS011;22011;59.912;30.300;2023-12-20T06:33:12;4.75;;;0.95;;
35917;SDS011;22011;59.912;30.300;2023-12-20T06:35:40;1.90;;;0.47;;
35917;SDS011;22011;59.912;30.300;2023-12-20T06:38:08;5.38;;;0.85;;
35917;SDS011;22011;59.912;30.300;2023-12-20T06:40:36;4.53;;;1.00;;
35917;SDS011;22011;59.912;30.300;2023-12-20T06:43:04;6.72;;;0.80;;
35917;SDS011;22011;59.912;30.300;2023-12-20T06:45:38;3.08;;;1.00;;
35917;SDS011;22011;59.912;30.300;2023-12-20T06:48:06;4.07;;;1.05;;
35917;SDS011;22011;59.912;30.300;2023-12-20T06:50:34;3.65;;;1.00;;
35917;SDS011;22011;59.912;30.300;2023-12-20T06:53:05;4.72;;;0.80;;
35917;SDS011;22011;59.912;30.300;2023-12-20T06:55:34;4.05;;;0.90;;
35917;SDS011;22011;59.912;30.300;2023-12-20T06:58:05;9.30;;;1.13;;
35917;SDS011;22011;59.912;30.300;2023-12-20T07:00:32;4.70;;;1.55;;
35917;SDS011;22011;59.912;30.300;2023-12-20T07:03:00;4.22;;;1.42;;
35917;SDS011;22011;59.912;30.300;2023-12-20T07:05:28;3.65;;;1.42;;
35917;SDS011;22011;59.912;30.300;2023-12-20T07:07:56;6.47;;;0.98;;
35917;SDS011;22011;59.912;30.300;2023-12-20T07:10:23;2.80;;;1.08;;
35917;SDS011;22011;59.912;30.300;2023-12-20T07:12:51;5.55;;;1.00;;
35917;SDS011;22011;59.912;30.300;2023-12-20T07:15:22;4.28;;;1.10;;
35917;SDS011;22011;59.912;30.300;2023-12-20T07:17:50;13.95;;;1.13;;
35917;SDS011;22011;59.912;30.300;2023-12-20T07:20:17;4.60;;;1.40;;
35917;SDS011;22011;59.912;30.300;2023-12-20T07:22:44;4.63;;;1.13;;
35917;SDS011;22011;59.912;30.300;2023-12-20T07:25:12;2.60;;;0.68;;
35917;SDS011;22011;59.912;30.300;2023-12-20T07:27:40;3.70;;;0.98;;
35917;SDS011;22011;59.912;30.300;2023-12-20T07:30:08;9.35;;;0.77;;
35917;SDS011;22011;59.912;30.300;2023-12-20T07:32:37;3.72;;;0.93;;
35917;SDS011;22011;59.912;30.300;2023-12-20T07:35:06;3.40;;;1.20;;
35917;SDS011;22011;59.912;30.300;2023-12-20T07:37:33;5.75;;;1.15;;
35917;SDS011;22011;59.912;30.300;2023-12-20T07:40:01;3.22;;;0.95;;
35917;SDS011;22011;59.912;30.300;2023-12-20T07:42:29;3.95;;;0.80;;
35917;SDS011;22011;59.912;30.300;2023-12-20T07:44:56;7.03;;;0.80;;
35917;SDS011;22011;59.912;30.300;2023-12-20T07:47:24;2.67;;;0.70;;
35917;SDS011;22011;59.912;30.300;2023-12-20T07:49:52;3.38;;;0.60;;
35917;SDS011;22011;59.912;30.300;2023-12-20T07:52:20;4.22;;;0.88;;
35917;SDS011;22011;59.912;30.300;2023-12-20T07:54:48;5.15;;;1.25;;
35917;SDS011;22011;59.912;30.300;2023-12-20T07:57:16;2.25;;;0.60;;
35917;SDS011;22011;59.912;30.300;2023-12-20T07:59:43;3.30;;;0.57;;
35917;SDS011;22011;59.912;30.300;2023-12-20T08:02:11;2.80;;;0.70;;
35917;SDS011;22011;59.912;30.300;2023-12-20T08:04:38;3.13;;;1.17;;
35917;SDS011;22011;59.912;30.300;2023-12-20T08:07:08;2.92;;;0.73;;
35917;SDS011;22011;59.912;30.300;2023-12-20T08:09:35;7.43;;;0.95;;
35917;SDS011;22011;59.912;30.300;2023-12-20T08:12:03;4.68;;;0.88;;
35917;SDS011;22011;59.912;30.300;2023-12-20T08:14:31;4.80;;;0.88;;
35917;SDS011;22011;59.912;30.300;2023-12-20T08:16:58;2.42;;;0.60;;
35917;SDS011;22011;59.912;30.300;2023-12-20T08:19:26;5.28;;;1.20;;
35917;SDS011;22011;59.912;30.300;2023-12-20T08:21:53;2.15;;;0.70;;
35917;SDS011;22011;59.912;30.300;2023-12-20T08:24:22;8.07;;;1.35;;
35917;SDS011;22011;59.912;30.300;2023-12-20T08:26:50;4.03;;;0.82;;
35917;SDS011;22011;59.912;30.300;2023-12-20T08:29:18;2.30;;;0.65;;
35917;SDS011;22011;59.912;30.300;2023-12-20T08:31:46;4.13;;;0.65;;
35917;SDS011;22011;59.912;30.300;2023-12-20T08:34:19;3.13;;;0.90;;
35917;SDS011;22011;59.912;30.300;2023-12-20T08:36:47;4.32;;;0.93;;
35917;SDS011;22011;59.912;30.300;2023-12-20T08:39:14;1.95;;;0.88;;
35917;SDS011;22011;59.912;30.300;2023-12-20T08:41:44;5.88;;;0.80;;
35917;SDS011;22011;59.912;30.300;2023-12-20T08:44:11;3.42;;;1.00;;
35917;SDS011;22011;59.912;30.300;2023-12-20T08:46:39;3.95;;;0.65;;
35917;SDS011;22011;59.912;30.300;2023-12-20T08:49:06;1.45;;;0.35;;
35917;SDS011;22011;59.912;30.300;2023-12-20T08:51:36;4.45;;;0.75;;
35917;SDS011;22011;59.912;30.300;2023-12-20T08:54:06;6.10;;;0.88;;
35917;SDS011;22011;59.912;30.300;2023-12-20T08:56:34;4.68;;;0.90;;
35917;SDS011;22011;59.912;30.300;2023-12-20T08:59:03;3.97;;;0.80;;
35917;SDS011;22011;59.912;30.300;2023-12-20T09:01:31;6.13;;;0.95;;
35917;SDS011;22011;59.912;30.300;2023-12-20T09:03:58;3.65;;;0.82;;
35917;SDS011;22011;59.912;30.300;2023-12-20T09:06:26;1.13;;;0.57;;
35917;SDS011;22011;59.912;30.300;2023-12-20T09:08:53;2.67;;;0.80;;
35917;SDS011;22011;59.912;30.300;2023-12-20T09:11:21;3.47;;;0.80;;
35917;SDS011;22011;59.912;30.300;2023-12-20T09:13:48;1.70;;;0.52;;
35917;SDS011;22011;59.912;30.300;2023-12-20T09:16:17;5.97;;;0.93;;
35917;SDS011;22011;59.912;30.300;2023-12-20T09:18:45;3.53;;;0.77;;
35917;SDS011;22011;59.912;30.300;2023-12-20T09:21:12;5.65;;;0.80;;
35917;SDS011;22011;59.912;30.300;2023-12-20T09:23:40;6.50;;;0.85;;
35917;SDS011;22011;59.912;30.300;2023-12-20T09:26:07;2.60;;;0.60;;
35917;SDS011;22011;59.912;30.300;2023-12-20T09:28:35;7.03;;;1.00;;
35917;SDS011;22011;59.912;30.300;2023-12-20T09:31:03;3.72;;;0.60;;
35917;SDS011;22011;59.912;30.300;2023-12-20T09:33:33;5.30;;;0.65;;
35917;SDS011;22011;59.912;30.300;2023-12-20T09:36:01;5.80;;;1.10;;
35917;SDS011;22011;59.912;30.300;2023-12-20T09:38:29;6.07;;;0.82;;
35917;SDS011;22011;59.912;30.300;2023-12-20T09:40:56;2.85;;;0.70;;
35917;SDS011;22011;59.912;30.300;2023-12-20T09:43:24;5.20;;;1.17;;
35917;SDS011;22011;59.912;30.300;2023-12-20T09:45:54;3.67;;;0.60;;
35917;SDS011;22011;59.912;30.300;2023-12-20T09:48:28;7.18;;;1.13;;
35917;SDS011;22011;59.912;30.300;2023-12-20T09:50:59;3.17;;;0.53;;
35917;SDS011;22011;59.912;30.300;2023-12-20T09:53:27;5.93;;;1.00;;
35917;SDS011;22011;59.912;30.300;2023-12-20T09:55:56;3.67;;;0.68;;
35917;SDS011;22011;59.912;30.300;2023-12-20T09:58:26;4.13;;;0.70;;
35917;SDS011;22011;59.912;30.300;2023-12-20T10:00:53;5.22;;;0.63;;
35917;SDS011;22011;59.912;30.300;2023-12-20T10:03:23;4.43;;;0.70;;
35917;SDS011;22011;59.912;30.300;2023-12-20T10:05:52;3.15;;;0.82;;
35917;SDS011;22011;59.912;30.300;2023-12-20T10:08:25;2.15;;;0.50;;
35917;SDS011;22011;59.912;30.300;2023-12-20T10:10:52;5.75;;;0.80;;
35917;SDS011;22011;59.912;30.300;2023-12-20T10:13:20;4.78;;;1.05;;
35917;SDS011;22011;59.912;30.300;2023-12-20T10:15:49;5.70;;;1.13;;
35917;SDS011;22011;59.912;30.300;2023-12-20T10:18:17;6.05;;;1.38;;
35917;SDS011;22011;59.912;30.300;2023-12-20T10:20:44;2.75;;;1.27;;
35917;SDS011;22011;59.912;30.300;2023-12-20T10:23:12;5.65;;;1.30;;
35917;SDS011;22011;59.912;30.300;2023-12-20T10:25:41;5.70;;;1.42;;
35917;SDS011;22011;59.912;30.300;2023-12-20T10:28:10;6.60;;;1.33;;
35917;SDS011;22011;59.912;30.300;2023-12-20T10:30:38;4.00;;;1.10;;
35917;SDS011;22011;59.912;30.300;2023-12-20T10:33:07;4.18;;;1.08;;
35917;SDS011;22011;59.912;30.300;2023-12-20T10:35:35;3.33;;;1.27;;
35917;SDS011;22011;59.912;30.300;2023-12-20T10:38:03;4.00;;;1.00;;
35917;SDS011;22011;59.912;30.300;2023-12-20T10:40:32;1.52;;;0.68;;
35917;SDS011;22011;59.912;30.300;2023-12-20T10:43:03;4.40;;;1.10;;
35917;SDS011;22011;59.912;30.300;2023-12-20T10:45:31;5.60;;;1.23;;
35917;SDS011;22011;59.912;30.300;2023-12-20T10:47:59;2.67;;;0.90;;
35917;SDS011;22011;59.912;30.300;2023-12-20T10:50:29;8.75;;;1.58;;
35917;SDS011;22011;59.912;30.300;2023-12-20T10:53:00;2.55;;;0.77;;
35917;SDS011;22011;59.912;30.300;2023-12-20T10:55:27;5.65;;;0.90;;
35917;SDS011;22011;59.912;30.300;2023-12-20T10:58:07;1.90;;;0.75;;
35917;SDS011;22011;59.912;30.300;2023-12-20T11:00:39;2.55;;;0.98;;
35917;SDS011;22011;59.912;30.300;2023-12-20T11:03:08;2.30;;;0.77;;
35917;SDS011;22011;59.912;30.300;2023-12-20T11:05:38;4.47;;;1.25;;
35917;SDS011;22011;59.912;30.300;2023-12-20T11:08:12;6.50;;;1.10;;
35917;SDS011;22011;59.912;30.300;2023-12-20T11:10:49;2.65;;;0.80;;
35917;SDS011;22011;59.912;30.300;2023-12-20T11:13:28;4.00;;;0.82;;
35917;SDS011;22011;59.912;30.300;2023-12-20T11:16:03;4.22;;;1.20;;
35917;SDS011;22011;59.912;30.300;2023-12-20T11:18:31;7.10;;;0.75;;
35917;SDS011;22011;59.912;30.300;2023-12-20T11:21:00;2.50;;;0.63;;
35917;SDS011;22011;59.912;30.300;2023-12-20T11:23:29;3.65;;;1.08;;
35917;SDS011;22011;59.912;30.300;2023-12-20T11:25:59;5.72;;;1.85;;
35917;SDS011;22011;59.912;30.300;2023-12-20T11:28:28;7.03;;;1.00;;
35917;SDS011;22011;59.912;30.300;2023-12-20T11:30:57;3.72;;;0.90;;
35917;SDS011;22011;59.912;30.300;2023-12-20T11:33:26;1.52;;;0.60;;
35917;SDS011;22011;59.912;30.300;2023-12-20T11:35:57;3.95;;;0.82;;
35917;SDS011;22011;59.912;30.300;2023-12-20T11:38:25;2.55;;;0.68;;
35917;SDS011;22011;59.912;30.300;2023-12-20T11:40:53;5.97;;;1.10;;
35917;SDS011;22011;59.912;30.300;2023-12-20T11:43:32;3.00;;;1.00;;
35917;SDS011;22011;59.912;30.300;2023-12-20T11:46:03;5.03;;;0.90;;
35917;SDS011;22011;59.912;30.300;2023-12-20T11:48:32;2.38;;;0.80;;
35917;SDS011;22011;59.912;30.300;2023-12-20T11:51:01;4.43;;;1.00;;
35917;SDS011;22011;59.912;30.300;2023-12-20T11:53:29;6.43;;;1.05;;
35917;SDS011;22011;59.912;30.300;2023-12-20T11:55:59;5.80;;;0.68;;
35917;SDS011;22011;59.912;30.300;2023-12-20T11:58:28;1.93;;;0.77;;
35917;SDS011;22011;59.912;30.300;2023-12-20T12:00:58;4.97;;;0.90;;
35917;SDS011;22011;59.912;30.300;2023-12-20T12:03:27;3.10;;;0.77;;
35917;SDS011;22011;59.912;30.300;2023-12-20T12:05:55;3.00;;;0.73;;
35917;SDS011;22011;59.912;30.300;2023-12-20T12:08:22;4.35;;;1.20;;
35917;SDS011;22011;59.912;30.300;2023-12-20T12:10:50;3.88;;;0.90;;
35917;SDS011;22011;59.912;30.300;2023-12-20T12:13:17;3.20;;;0.93;;
35917;SDS011;22011;59.912;30.300;2023-12-20T12:15:45;0.90;;;0.50;;
35917;SDS011;22011;59.912;30.300;2023-12-20T12:18:16;2.70;;;0.60;;
35917;SDS011;22011;59.912;30.300;2023-12-20T12:20:44;4.90;;;0.70;;
35917;SDS011;22011;59.912;30.300;2023-12-20T12:23:11;10.38;;;0.88;;
35917;SDS011;22011;59.912;30.300;2023-12-20T12:25:39;3.30;;;0.90;;
35917;SDS011;22011;59.912;30.300;2023-12-20T12:28:07;4.22;;;0.90;;
35917;SDS011;22011;59.912;30.300;2023-12-20T12:30:34;4.25;;;0.70;;
35917;SDS011;22011;59.912;30.300;2023-12-20T12:33:02;3.10;;;0.98;;
35917;SDS011;22011;59.912;30.300;2023-12-20T12:35:32;2.72;;;0.80;;
35917;SDS011;22011;59.912;30.300;2023-12-20T12:38:00;3.30;;;0.90;;
35917;SDS011;22011;59.912;30.300;2023-12-20T12:40:29;2.90;;;0.80;;
35917;SDS011;22011;59.912;30.300;2023-12-20T12:42:56;6.60;;;1.15;;
35917;SDS011;22011;59.912;30.300;2023-12-20T12:45:34;8.30;;;1.05;;
35917;SDS011;22011;59.912;30.300;2023-12-20T12:48:02;3.08;;;0.80;;
35917;SDS011;22011;59.912;30.300;2023-12-20T12:50:30;4.03;;;0.98;;
35917;SDS011;22011;59.912;30.300;2023-12-20T12:52:59;6.45;;;1.20;;
35917;SDS011;22011;59.912;30.300;2023-12-20T12:55:26;4.47;;;0.70;;
35917;SDS011;22011;59.912;30.300;2023-12-20T12:57:54;4.60;;;1.33;;
35917;SDS011;22011;59.912;30.300;2023-12-20T13:00:21;3.72;;;1.13;;
35917;SDS011;22011;59.912;30.300;2023-12-20T13:02:50;5.95;;;1.10;;
35917;SDS011;22011;59.912;30.300;2023-12-20T13:05:18;3.53;;;0.93;;
35917;SDS011;22011;59.912;30.300;2023-12-20T13:07:47;3.33;;;0.80;;
35917;SDS011;22011;59.912;30.300;2023-12-20T13:10:14;4.70;;;1.25;;
35917;SDS011;22011;59.912;30.300;2023-12-20T13:12:42;3.58;;;0.93;;
35917;SDS011;22011;59.912;30.300;2023-12-20T13:15:10;5.32;;;0.98;;
35917;SDS011;22011;59.912;30.300;2023-12-20T13:17:37;2.70;;;0.90;;
35917;SDS011;22011;59.912;30.300;2023-12-20T13:20:06;4.82;;;0.60;;
35917;SDS011;22011;59.912;30.300;2023-12-20T13:22:34;3.90;;;1.08;;
35917;SDS011;22011;59.912;30.300;2023-12-20T13:25:03;4.60;;;1.08;;
35917;SDS011;22011;59.912;30.300;2023-12-20T13:27:32;6.20;;;1.10;;
35917;SDS011;22011;59.912;30.300;2023-12-20T13:30:00;3.05;;;0.75;;
35917;SDS011;22011;59.912;30.300;2023-12-20T13:32:28;5.00;;;1.13;;
35917;SDS011;22011;59.912;30.300;2023-12-20T13:34:56;5.53;;;1.75;;
35917;SDS011;22011;59.912;30.300;2023-12-20T13:37:24;4.15;;;0.90;;
35917;SDS011;22011;59.912;30.300;2023-12-20T13:39:51;4.35;;;0.85;;
35917;SDS011;22011;59.912;30.300;2023-12-20T13:42:20;5.22;;;1.05;;
35917;SDS011;22011;59.912;30.300;2023-12-20T13:44:48;4.05;;;0.80;;
35917;SDS011;22011;59.912;30.300;2023-12-20T13:47:15;2.50;;;0.80;;
35917;SDS011;22011;59.912;30.300;2023-12-20T13:49:43;3.90;;;1.00;;
35917;SDS011;22011;59.912;30.300;2023-12-20T13:52:11;4.10;;;0.60;;
35917;SDS011;22011;59.912;30.300;2023-12-20T13:54:39;3.88;;;0.80;;
35917;SDS011;22011;59.912;30.300;2023-12-20T13:57:08;3.85;;;1.20;;
35917;SDS011;22011;59.912;30.300;2023-12-20T13:59:37;3.47;;;0.80;;
35917;SDS011;22011;59.912;30.300;2023-12-20T14:02:05;4.57;;;1.13;;
35917;SDS011;22011;59.912;30.300;2023-12-20T14:04:32;3.00;;;1.33;;
35917;SDS011;22011;59.912;30.300;2023-12-20T14:07:00;2.83;;;1.10;;
35917;SDS011;22011;59.912;30.300;2023-12-20T14:09:28;8.77;;;1.23;;
35917;SDS011;22011;59.912;30.300;2023-12-20T14:11:56;3.60;;;0.60;;
35917;SDS011;22011;59.912;30.300;2023-12-20T14:14:23;2.30;;;1.13;;
35917;SDS011;22011;59.912;30.300;2023-12-20T14:16:52;5.05;;;1.05;;
35917;SDS011;22011;59.912;30.300;2023-12-20T14:19:20;4.93;;;0.82;;
35917;SDS011;22011;59.912;30.300;2023-12-20T14:21:47;3.97;;;1.00;;
35917;SDS011;22011;59.912;30.300;2023-12-20T14:24:15;4.22;;;1.05;;
35917;SDS011;22011;59.912;30.300;2023-12-20T14:26:42;5.40;;;1.08;;
35917;SDS011;22011;59.912;30.300;2023-12-20T14:29:10;8.43;;;1.65;;
35917;SDS011;22011;59.912;30.300;2023-12-20T14:31:37;3.55;;;0.95;;
35917;SDS011;22011;59.912;30.300;2023-12-20T14:34:08;3.83;;;1.10;;
35917;SDS011;22011;59.912;30.300;2023-12-20T14:36:35;6.70;;;1.25;;
35917;SDS011;22011;59.912;30.300;2023-12-20T14:39:03;2.70;;;1.05;;